createdAt,value
2023-01-18T00:00:01.233Z,961.4726
2023-01-18T00:01:00.366Z,961.2788
2023-01-18T00:02:00.547Z,961.4736
2023-01-18T00:03:00.911Z,961.3344
2023-01-18T00:04:00.800Z,961.4426
2023-01-18T00:05:01.033Z,961.2975
2023-01-18T00:06:01.099Z,961.2418
2023-01-18T00:07:01.261Z,961.3125
2023-01-18T00:08:00.407Z,961.3066
2023-01-18T00:09:00.551Z,961.4458
2023-01-18T00:10:00.693Z,961.4179
2023-01-18T00:11:00.844Z,961.3066
2023-01-18T00:12:01.001Z,961.4179
2023-01-18T00:13:01.139Z,961.5015
2023-01-18T00:14:00.278Z,961.3066
2023-01-18T00:15:00.441Z,961.3901
2023-01-18T00:16:00.663Z,961.4736
2023-01-18T00:17:00.768Z,961.2509
2023-01-18T00:18:00.891Z,961.2788
2023-01-18T00:19:01.039Z,961.2418
2023-01-18T00:20:01.205Z,961.2376
2023-01-18T00:21:00.330Z,961.2879
2023-01-18T00:22:00.489Z,961.3843
2023-01-18T00:23:00.729Z,961.1765
2023-01-18T00:24:00.770Z,961.4121
2023-01-18T00:25:00.929Z,961.3066
2023-01-18T00:26:01.066Z,961.4448
2023-01-18T00:27:01.212Z,961.222
2023-01-18T00:28:00.351Z,961.2258
2023-01-18T00:29:00.503Z,961.3431
2023-01-18T00:30:00.664Z,961.327
2023-01-18T00:31:00.816Z,961.4384
2023-01-18T00:32:00.938Z,961.349
2023-01-18T00:33:01.436Z,961.3372
2023-01-18T00:34:01.228Z,961.3066
2023-01-18T00:35:00.375Z,961.2601
2023-01-18T00:36:00.543Z,961.1482
2023-01-18T00:37:00.668Z,961.2199
2023-01-18T00:38:00.807Z,961.2199
2023-01-18T00:39:00.964Z,961.2509
2023-01-18T00:40:01.116Z,961.2145
2023-01-18T00:42:00.369Z,961.2584
2023-01-18T00:43:00.746Z,961.1193
2023-01-18T00:44:00.693Z,961.2702
2023-01-18T00:45:00.811Z,961.298
2023-01-18T00:46:00.985Z,961.4736
2023-01-18T00:47:01.102Z,961.4153
2023-01-18T00:48:01.239Z,961.4458
2023-01-18T00:49:00.406Z,961.3344
2023-01-18T00:50:00.562Z,961.3623
2023-01-18T00:51:00.675Z,961.3901
2023-01-18T00:52:00.828Z,961.5822
2023-01-18T00:53:01.038Z,961.4458
2023-01-18T00:54:01.129Z,961.3066
2023-01-18T00:55:00.300Z,961.585
2023-01-18T00:56:00.418Z,961.3901
2023-01-18T00:57:00.576Z,961.3344
2023-01-18T00:58:00.719Z,961.381
2023-01-18T00:59:00.858Z,961.2873
2023-01-18T01:00:01.023Z,961.3329
2023-01-18T01:01:01.358Z,961.2949
2023-01-18T01:02:00.480Z,961.3034
2023-01-18T01:03:00.922Z,961.4823
2023-01-18T01:04:00.617Z,961.3827
2023-01-18T01:05:00.767Z,961.3608
2023-01-18T01:06:00.907Z,961.4282
2023-01-18T01:07:01.055Z,961.4282
2023-01-18T01:08:01.241Z,961.5
2023-01-18T01:09:00.363Z,961.327
2023-01-18T01:10:00.523Z,961.327
2023-01-18T01:11:00.662Z,961.4282
2023-01-18T01:12:00.851Z,961.4282
2023-01-18T01:13:00.951Z,961.3549
2023-01-18T01:14:01.119Z,961.4282
2023-01-18T01:15:01.259Z,961.4561
2023-01-18T01:16:00.417Z,961.6072
2023-01-18T01:17:00.553Z,961.4352
2023-01-18T01:18:00.700Z,961.3902
2023-01-18T01:19:00.871Z,961.4824
2023-01-18T01:20:00.994Z,961.4015
2023-01-18T01:21:01.168Z,961.5843
2023-01-18T01:22:00.310Z,961.6449
2023-01-18T01:23:00.636Z,961.78
2023-01-18T01:24:00.632Z,961.534
2023-01-18T01:25:00.767Z,961.6792
2023-01-18T01:26:00.900Z,961.698
2023-01-18T01:27:01.053Z,961.3957
2023-01-18T01:28:01.214Z,961.5629
2023-01-18T01:29:00.363Z,961.4514
2023-01-18T01:30:00.516Z,961.6465
2023-01-18T01:31:00.715Z,961.5291
2023-01-18T01:32:00.800Z,961.4177
2023-01-18T01:33:00.939Z,961.5511
2023-01-18T01:34:01.088Z,961.519
2023-01-18T01:35:01.240Z,961.4193
2023-01-18T01:36:00.384Z,961.2681
2023-01-18T01:37:00.554Z,961.4193
2023-01-18T01:38:00.676Z,961.3662
2023-01-18T01:39:00.849Z,961.3603
2023-01-18T01:40:00.969Z,961.3234
2023-01-18T01:41:01.121Z,961.4686
2023-01-18T01:42:01.268Z,961.4349
2023-01-18T01:43:00.395Z,961.5024
2023-01-18T01:44:00.540Z,961.2456
2023-01-18T01:45:00.695Z,961.2236
2023-01-18T01:46:00.858Z,961.4515
2023-01-18T01:47:01.000Z,961.2563
2023-01-18T01:48:01.158Z,961.4027
2023-01-18T01:49:00.264Z,961.2134
2023-01-18T01:50:00.420Z,961.237
2023-01-18T01:51:00.566Z,961.3207
2023-01-18T01:52:00.711Z,961.1872
2023-01-18T01:53:00.867Z,961.2129
2023-01-18T01:54:01.033Z,961.2735
2023-01-18T01:55:01.141Z,961.1249
2023-01-18T01:56:00.288Z,961.0928
2023-01-18T01:57:00.447Z,961.2735
2023-01-18T01:58:00.589Z,961.2735
2023-01-18T01:59:00.766Z,961.3481
2023-01-18T02:00:00.913Z,961.3819
2023-01-18T02:01:01.200Z,961.4495
2023-01-18T02:02:01.251Z,961.1705
2023-01-18T02:03:00.957Z,961.1882
2023-01-18T02:04:00.482Z,961.215
2023-01-18T02:05:00.648Z,961.207
2023-01-18T02:06:00.777Z,961.229
2023-01-18T02:07:00.946Z,961.3546
2023-01-18T02:08:01.067Z,961.6256
2023-01-18T02:09:01.216Z,961.3685
2023-01-18T02:10:00.385Z,961.229
2023-01-18T02:11:00.497Z,961.1512
2023-01-18T02:12:00.658Z,961.2467
2023-01-18T02:13:00.895Z,961.4979
2023-01-18T02:14:00.949Z,961.4302
2023-01-18T02:15:01.123Z,961.3186
2023-01-18T02:16:01.254Z,961.2628
2023-01-18T02:17:00.471Z,961.4082
2023-01-18T02:18:00.543Z,961.3932
2023-01-18T02:19:00.696Z,961.2875
2023-01-18T02:20:00.863Z,961.3712
2023-01-18T02:21:01.020Z,961.3541
2023-01-18T02:22:01.160Z,961.4437
2023-01-18T02:23:00.514Z,961.3949
2023-01-18T02:24:00.435Z,961.2333
2023-01-18T02:25:00.615Z,961.3219
2023-01-18T02:26:00.763Z,961.3627
2023-01-18T02:27:00.892Z,961.2199
2023-01-18T02:28:01.036Z,961.4153
2023-01-18T02:29:01.191Z,961.3476
2023-01-18T02:30:00.334Z,961.4035
2023-01-18T02:31:00.533Z,961.2719
2023-01-18T02:32:00.621Z,961.2999
2023-01-18T02:33:00.860Z,961.3348
2023-01-18T02:34:00.918Z,961.251
2023-01-18T02:35:01.062Z,961.2698
2023-01-18T02:36:01.241Z,961.3036
2023-01-18T02:37:00.368Z,961.3874
2023-01-18T02:38:00.521Z,961.404
2023-01-18T02:39:00.659Z,961.3713
2023-01-18T02:40:00.814Z,961.3713
2023-01-18T02:41:00.959Z,961.5436
2023-01-18T02:42:01.099Z,961.404
2023-01-18T02:43:01.266Z,961.3203
2023-01-18T02:44:00.448Z,961.4878
2023-01-18T02:45:00.569Z,961.4878
2023-01-18T02:46:00.741Z,961.3949
2023-01-18T02:47:00.851Z,961.3101
2023-01-18T02:48:00.991Z,961.3949
2023-01-18T02:49:01.157Z,961.4277
2023-01-18T02:50:00.300Z,961.3998
2023-01-18T02:51:00.485Z,961.3627
2023-01-18T02:52:00.610Z,961.3654
2023-01-18T02:53:00.760Z,961.3654
2023-01-18T02:54:00.912Z,961.3654
2023-01-18T02:55:01.049Z,961.3933
2023-01-18T02:56:01.222Z,961.4213
2023-01-18T02:57:00.338Z,961.533
2023-01-18T02:58:00.488Z,961.3375
2023-01-18T02:59:00.632Z,961.2816
2023-01-18T03:00:00.779Z,961.2875
2023-01-18T03:01:01.016Z,961.3993
2023-01-18T03:02:01.146Z,961.3493
2023-01-18T03:03:01.638Z,961.3842
2023-01-18T03:04:00.389Z,961.3284
2023-01-18T03:05:00.534Z,961.4508
2023-01-18T03:06:00.692Z,961.4138
2023-01-18T03:07:00.836Z,961.2301
2023-01-18T03:08:00.969Z,961.2209
2023-01-18T03:09:01.119Z,961.2268
2023-01-18T03:10:00.262Z,961.4122
2023-01-18T03:11:00.432Z,961.3725
2023-01-18T03:12:00.550Z,961.3284
2023-01-18T03:13:00.812Z,961.3623
2023-01-18T03:14:00.844Z,961.1785
2023-01-18T03:15:00.987Z,961.4638
2023-01-18T03:16:01.231Z,961.4977
2023-01-18T03:17:00.280Z,961.1624
2023-01-18T03:18:00.436Z,961.2462
2023-01-18T03:19:00.581Z,961.3467
2023-01-18T03:20:00.733Z,961.1919
2023-01-18T03:21:00.884Z,961.2048
2023-01-18T03:22:01.047Z,961.2887
2023-01-18T03:23:01.416Z,961.1489
2023-01-18T03:24:00.302Z,961.2785
2023-01-18T03:25:00.462Z,961.3903
2023-01-18T03:26:00.619Z,961.4682
2023-01-18T03:27:00.829Z,961.3064
2023-01-18T03:28:00.890Z,961.3903
2023-01-18T03:29:01.050Z,961.3462
2023-01-18T03:30:01.187Z,961.1446
2023-01-18T03:31:00.398Z,961.3344
2023-01-18T03:32:00.503Z,961.1785
2023-01-18T03:33:00.736Z,961.2403
2023-01-18T03:34:00.789Z,961.408
2023-01-18T03:35:00.933Z,961.2064
2023-01-18T03:36:01.081Z,961.1844
2023-01-18T03:37:01.263Z,961.2193
2023-01-18T03:38:00.380Z,961.0623
2023-01-18T03:39:00.525Z,961.4355
2023-01-18T03:40:00.665Z,961.0903
2023-01-18T03:41:00.816Z,961.243
2023-01-18T03:42:00.977Z,961.0623
2023-01-18T03:43:01.122Z,961.1242
2023-01-18T03:45:00.370Z,961.2957
2023-01-18T03:46:00.557Z,961.1279
2023-01-18T03:47:00.687Z,961.1
2023-01-18T03:48:00.806Z,961.1279
2023-01-18T03:49:00.976Z,961.2118
2023-01-18T03:50:01.122Z,961.2677
2023-01-18T03:51:01.268Z,961.4355
2023-01-18T03:52:00.452Z,961.2677
2023-01-18T03:53:00.550Z,961.2398
2023-01-18T03:54:00.705Z,961.2398
2023-01-18T03:55:00.856Z,961.2398
2023-01-18T03:56:01.002Z,961.3516
2023-01-18T03:57:01.152Z,961.4075
2023-01-18T03:58:00.300Z,961.3414
2023-01-18T03:59:00.462Z,961.3193
2023-01-18T04:00:00.631Z,961.3414
2023-01-18T04:01:00.796Z,961.3355
2023-01-18T04:02:00.944Z,961.5151
2023-01-18T04:03:01.611Z,961.4312
2023-01-18T04:04:01.195Z,961.4489
2023-01-18T04:05:00.341Z,961.4559
2023-01-18T04:06:00.516Z,961.4489
2023-01-18T04:07:00.649Z,961.4619
2023-01-18T04:08:00.805Z,961.5286
2023-01-18T04:09:00.958Z,961.3161
2023-01-18T04:10:01.113Z,961.5286
2023-01-18T04:11:01.284Z,961.3328
2023-01-18T04:12:00.393Z,961.4796
2023-01-18T04:13:00.897Z,961.3048
2023-01-18T04:14:00.685Z,961.6044
2023-01-18T04:15:00.833Z,961.3608
2023-01-18T04:16:01.025Z,961.5883
2023-01-18T04:17:01.128Z,961.4425
2023-01-18T04:18:00.281Z,961.4646
2023-01-18T04:19:00.435Z,961.4425
2023-01-18T04:20:00.578Z,961.6103
2023-01-18T04:21:00.745Z,961.4425
2023-01-18T04:22:00.866Z,961.4205
2023-01-18T04:23:01.351Z,961.3925
2023-01-18T04:24:01.165Z,961.4544
2023-01-18T04:25:00.307Z,961.4146
2023-01-18T04:26:00.492Z,961.5544
2023-01-18T04:27:00.603Z,961.5824
2023-01-18T04:28:00.751Z,961.5324
2023-01-18T04:29:00.896Z,961.4425
2023-01-18T04:30:01.098Z,961.4425
2023-01-18T04:31:01.301Z,961.4985
2023-01-18T04:32:00.347Z,961.4985
2023-01-18T04:33:00.881Z,961.6103
2023-01-18T04:34:00.657Z,961.3925
2023-01-18T04:35:00.790Z,961.3807
2023-01-18T04:36:00.961Z,961.4425
2023-01-18T04:37:01.081Z,961.4167
2023-01-18T04:38:01.229Z,961.4985
2023-01-18T04:39:00.379Z,961.5324
2023-01-18T04:40:00.526Z,961.4425
2023-01-18T04:41:00.701Z,961.4985
2023-01-18T04:42:00.835Z,961.3307
2023-01-18T04:43:01.368Z,961.5544
2023-01-18T04:44:01.161Z,961.3608
2023-01-18T04:45:00.319Z,961.5845
2023-01-18T04:46:00.440Z,961.4447
2023-01-18T04:47:00.586Z,961.5006
2023-01-18T04:48:00.721Z,961.5006
2023-01-18T04:49:00.879Z,961.4726
2023-01-18T04:50:01.034Z,961.4167
2023-01-18T04:51:01.202Z,961.5845
2023-01-18T04:52:00.326Z,961.4447
2023-01-18T04:53:00.996Z,961.4167
2023-01-18T04:54:00.625Z,961.4167
2023-01-18T04:55:00.774Z,961.4237
2023-01-18T04:56:00.929Z,961.3678
2023-01-18T04:57:01.087Z,961.3307
2023-01-18T04:58:01.236Z,961.4205
2023-01-18T04:59:00.373Z,961.5663
2023-01-18T05:00:00.563Z,961.4323
2023-01-18T05:01:00.787Z,961.4711
2023-01-18T05:02:00.855Z,961.555
2023-01-18T05:03:01.292Z,961.583
2023-01-18T05:04:01.115Z,961.3592
2023-01-18T05:05:01.257Z,961.505
2023-01-18T05:06:00.398Z,961.527
2023-01-18T05:07:00.570Z,961.4652
2023-01-18T05:08:00.701Z,961.4711
2023-01-18T05:09:00.858Z,961.3592
2023-01-18T05:10:01.004Z,961.505
2023-01-18T05:11:01.152Z,961.3102
2023-01-18T05:12:00.316Z,961.4781
2023-01-18T05:13:01.027Z,961.3662
2023-01-18T05:14:00.615Z,961.4781
2023-01-18T05:15:00.759Z,961.3931
2023-01-18T05:16:00.964Z,961.2812
2023-01-18T05:17:01.059Z,961.5728
2023-01-18T05:18:01.203Z,961.4889
2023-01-18T05:19:00.720Z,961.6287
2023-01-18T05:20:00.483Z,961.5609
2023-01-18T05:21:00.647Z,961.5728
2023-01-18T05:22:00.821Z,961.6067
2023-01-18T05:23:01.141Z,961.6067
2023-01-18T05:24:01.075Z,961.7186
2023-01-18T05:25:01.216Z,961.6567
2023-01-18T05:26:00.375Z,961.6287
2023-01-18T05:27:00.540Z,961.8865
2023-01-18T05:28:00.664Z,961.7536
2023-01-18T05:29:00.808Z,961.8246
2023-01-18T05:30:00.966Z,961.8714
2023-01-18T05:31:01.122Z,961.6417
2023-01-18T05:32:00.300Z,961.8714
2023-01-18T05:33:00.861Z,961.7745
2023-01-18T05:34:00.603Z,961.6976
2023-01-18T05:35:00.706Z,961.7315
2023-01-18T05:36:00.853Z,961.8144
2023-01-18T05:37:01.021Z,961.8123
2023-01-18T05:38:01.141Z,961.7773
2023-01-18T05:39:00.295Z,961.7843
2023-01-18T05:40:00.433Z,961.9581
2023-01-18T05:41:00.590Z,961.9581
2023-01-18T05:42:00.748Z,962.048
2023-01-18T05:43:01.221Z,961.8462
2023-01-18T05:44:01.028Z,962.019
2023-01-18T05:45:01.199Z,962.0141
2023-01-18T05:46:00.357Z,961.8403
2023-01-18T05:47:00.477Z,962.0749
2023-01-18T05:48:00.608Z,961.9581
2023-01-18T05:49:00.775Z,961.8682
2023-01-18T05:50:00.939Z,962.048
2023-01-18T05:51:01.096Z,961.8123
2023-01-18T05:52:01.204Z,961.991
2023-01-18T05:53:00.888Z,961.992
2023-01-18T05:54:00.524Z,962.019
2023-01-18T05:55:00.647Z,961.8511
2023-01-18T05:56:00.809Z,961.8511
2023-01-18T05:57:00.953Z,961.8241
2023-01-18T05:58:01.089Z,961.8511
2023-01-18T05:59:01.261Z,962.0749
2023-01-18T06:00:00.385Z,961.8123
2023-01-18T06:01:00.591Z,961.8682
2023-01-18T06:02:00.795Z,961.8403
2023-01-18T06:03:01.118Z,961.9802
2023-01-18T06:04:01.045Z,961.8144
2023-01-18T06:05:01.129Z,961.9172
2023-01-18T06:06:00.282Z,962.0442
2023-01-18T06:07:00.428Z,961.9172
2023-01-18T06:08:00.592Z,961.9242
2023-01-18T06:09:00.758Z,962.0011
2023-01-18T06:10:00.920Z,961.9802
2023-01-18T06:11:01.056Z,961.7902
2023-01-18T06:12:01.187Z,961.9732
2023-01-18T06:13:00.874Z,962.1599
2023-01-18T06:14:00.543Z,961.8682
2023-01-18T06:15:00.699Z,962.0011
2023-01-18T06:16:00.849Z,962.176
2023-01-18T06:17:00.964Z,961.8983
2023-01-18T06:18:01.161Z,961.9543
2023-01-18T06:19:01.272Z,962.0942
2023-01-18T06:20:00.415Z,961.9823
2023-01-18T06:21:01.606Z,962.0672
2023-01-18T06:22:00.717Z,962.1232
2023-01-18T06:23:01.254Z,962.0113
2023-01-18T06:24:01.010Z,962.0382
2023-01-18T06:25:01.166Z,961.9274
2023-01-18T06:26:00.341Z,961.9144
2023-01-18T06:27:00.457Z,961.9984
2023-01-18T06:28:00.603Z,962.0662
2023-01-18T06:29:00.765Z,962.0263
2023-01-18T06:30:00.925Z,962.1232
2023-01-18T06:31:01.094Z,962.0333
2023-01-18T06:32:01.223Z,962.1792
2023-01-18T06:33:00.862Z,962.1382
2023-01-18T06:34:00.534Z,962.1732
2023-01-18T06:35:00.664Z,962.0393
2023-01-18T06:36:00.798Z,962.1961
2023-01-18T06:37:00.977Z,962.1961
2023-01-18T06:38:01.108Z,962.0662
2023-01-18T06:39:01.242Z,962.3009
2023-01-18T06:40:02.673Z,962.1201
2023-01-18T06:41:00.557Z,962.182
2023-01-18T06:42:00.706Z,962.3009
2023-01-18T06:43:01.238Z,962.176
2023-01-18T06:44:00.983Z,962.197
2023-01-18T06:45:01.136Z,962.0942
2023-01-18T06:46:00.316Z,962.23
2023-01-18T06:47:00.477Z,962.1961
2023-01-18T06:48:00.573Z,962.1792
2023-01-18T06:49:00.748Z,962.23
2023-01-18T06:50:00.878Z,962.366
2023-01-18T06:51:01.032Z,962.4279
2023-01-18T06:52:01.193Z,962.3849
2023-01-18T06:53:00.735Z,962.4198
2023-01-18T06:54:00.478Z,962.2799
2023-01-18T06:55:00.625Z,962.3079
2023-01-18T06:56:00.765Z,962.4478
2023-01-18T06:57:00.912Z,962.4027
2023-01-18T06:58:01.073Z,962.3758
2023-01-18T06:59:01.212Z,962.4818
2023-01-18T07:00:00.342Z,962.4198
2023-01-18T07:01:00.621Z,962.4758
2023-01-18T07:02:00.820Z,962.3639
2023-01-18T07:03:01.075Z,962.5707
2023-01-18T07:04:00.939Z,962.4997
2023-01-18T07:05:01.065Z,962.5218
2023-01-18T07:06:01.236Z,962.4868
2023-01-18T07:07:00.365Z,962.7005
2023-01-18T07:08:00.520Z,962.6676
2023-01-18T07:09:00.683Z,962.5896
2023-01-18T07:10:00.813Z,962.7845
2023-01-18T07:11:00.983Z,962.6166
2023-01-18T07:12:01.136Z,962.7285
2023-01-18T07:13:00.829Z,962.7285
2023-01-18T07:14:00.428Z,962.8404
2023-01-18T07:15:09.864Z,962.7285
2023-01-18T07:16:01.253Z,962.7285
2023-01-18T07:17:00.935Z,962.7845
2023-01-18T07:18:01.018Z,962.7845
2023-01-18T07:19:01.166Z,962.9653
2023-01-18T07:20:00.312Z,962.9933
2023-01-18T07:21:00.469Z,962.7845
2023-01-18T07:22:00.653Z,963.0083
2023-01-18T07:23:01.117Z,962.8474
2023-01-18T07:24:00.905Z,962.9804
2023-01-18T07:25:01.046Z,962.8404
2023-01-18T07:26:01.189Z,962.9094
2023-01-18T07:27:00.353Z,963.2042
2023-01-18T07:28:00.506Z,962.9374
2023-01-18T07:29:00.637Z,962.7845
2023-01-18T07:30:00.790Z,963.3131
2023-01-18T07:31:00.933Z,962.9594
2023-01-18T07:32:01.226Z,962.8814
2023-01-18T07:33:01.541Z,962.7845
2023-01-18T07:34:00.376Z,962.9153
2023-01-18T07:35:00.513Z,962.8874
2023-01-18T07:36:00.652Z,962.9153
2023-01-18T07:37:00.825Z,962.9713
2023-01-18T07:38:00.948Z,963.0273
2023-01-18T07:39:01.103Z,962.8594
2023-01-18T07:40:01.250Z,962.8314
2023-01-18T07:41:00.408Z,962.9273
2023-01-18T07:42:00.565Z,963.0672
2023-01-18T07:43:01.075Z,963.1971
2023-01-18T07:44:00.831Z,963.138
2023-01-18T07:45:00.985Z,962.9732
2023-01-18T07:46:01.159Z,963.082
2023-01-18T07:47:00.280Z,963.3339
2023-01-18T07:48:00.457Z,963.222
2023-01-18T07:49:00.588Z,963.054
2023-01-18T07:50:00.730Z,963.082
2023-01-18T07:51:00.889Z,963.222
2023-01-18T07:52:01.018Z,963.082
2023-01-18T07:53:01.507Z,963.145
2023-01-18T07:54:00.327Z,962.989
2023-01-18T07:55:00.472Z,963.2129
2023-01-18T07:56:00.623Z,963.3529
2023-01-18T07:57:00.773Z,963.2129
2023-01-18T07:58:00.929Z,963.1419
2023-01-18T07:59:01.071Z,963.2689
2023-01-18T08:00:01.219Z,963.045
2023-01-18T08:01:00.421Z,963.1419
2023-01-18T08:02:00.593Z,963.001
2023-01-18T08:03:01.281Z,963.1689
2023-01-18T08:04:00.808Z,963.1588
2023-01-18T08:05:00.949Z,963.3488
2023-01-18T08:06:01.097Z,963.3338
2023-01-18T08:07:01.248Z,963.3168
2023-01-18T08:08:00.373Z,963.2608
2023-01-18T08:09:00.541Z,963.2778
2023-01-18T08:10:00.695Z,963.2888
2023-01-18T08:11:00.839Z,963.4288
2023-01-18T08:12:01.015Z,963.3728
2023-01-18T08:13:01.285Z,963.4008
2023-01-18T08:14:00.318Z,963.3168
2023-01-18T08:15:00.475Z,963.2608
2023-01-18T08:16:00.720Z,963.4747
2023-01-18T08:17:00.744Z,963.3627
2023-01-18T08:18:00.897Z,963.5027
2023-01-18T08:19:01.049Z,963.4097
2023-01-18T08:20:01.209Z,963.4657
2023-01-18T08:21:00.364Z,963.3037
2023-01-18T08:22:00.487Z,963.4616
2023-01-18T08:23:00.842Z,963.5116
2023-01-18T08:24:00.802Z,963.5176
2023-01-18T08:25:00.967Z,963.4896
2023-01-18T08:26:01.095Z,963.3776
2023-01-18T08:27:01.249Z,963.4806
2023-01-18T08:28:00.381Z,963.5766
2023-01-18T08:29:00.540Z,963.4646
2023-01-18T08:30:00.701Z,963.5756
2023-01-18T08:31:00.866Z,963.5855
2023-01-18T08:32:00.973Z,963.5105
2023-01-18T08:33:01.438Z,963.5635
2023-01-18T08:34:00.260Z,963.4855
2023-01-18T08:35:00.420Z,963.7286
2023-01-18T08:36:00.587Z,963.6445
2023-01-18T08:37:00.708Z,963.6215
2023-01-18T08:38:00.854Z,963.8236
2023-01-18T08:39:01.001Z,963.6525
2023-01-18T08:40:01.151Z,963.5684
2023-01-18T08:41:00.303Z,963.6305
2023-01-18T08:42:00.467Z,963.8806
2023-01-18T08:43:01.010Z,963.7785
2023-01-18T08:44:00.744Z,963.8066
2023-01-18T08:45:00.888Z,963.8466
2023-01-18T08:46:01.035Z,963.8686
2023-01-18T08:47:01.195Z,963.6945
2023-01-18T08:48:00.332Z,963.9087
2023-01-18T08:49:00.488Z,963.8406
2023-01-18T08:50:00.629Z,964.0208
2023-01-18T08:51:00.774Z,963.9367
2023-01-18T08:52:00.937Z,963.8346
2023-01-18T08:53:01.477Z,964.0338
2023-01-18T08:54:01.221Z,963.9767
2023-01-18T08:55:00.360Z,964.1359
2023-01-18T08:56:00.499Z,963.8466
2023-01-18T08:57:01.357Z,963.9116
2023-01-18T08:58:00.879Z,964.0518
2023-01-18T08:59:01.073Z,963.8926
2023-01-18T09:00:01.102Z,963.9116
2023-01-18T09:01:01.247Z,963.9116
2023-01-18T09:02:00.473Z,963.9797
2023-01-18T09:03:00.831Z,964.0818
2023-01-18T09:04:00.724Z,964.0818
2023-01-18T09:05:00.835Z,964.0818
2023-01-18T09:06:00.997Z,964.1229
2023-01-18T09:07:01.167Z,964.191
2023-01-18T09:08:00.295Z,964.0788
2023-01-18T09:09:00.436Z,964.1189
2023-01-18T09:10:00.588Z,963.9357
2023-01-18T09:11:00.730Z,964.1439
2023-01-18T09:12:00.893Z,964.172
2023-01-18T09:13:01.407Z,964.1439
2023-01-18T09:14:01.941Z,964.1059
2023-01-18T09:15:00.299Z,964.1049
2023-01-18T09:16:00.482Z,964.161
2023-01-18T09:17:00.611Z,964.2021
2023-01-18T09:18:00.766Z,964.0779
2023-01-18T09:19:00.901Z,964.0558
2023-01-18T09:20:01.070Z,964.1179
2023-01-18T09:21:01.216Z,964.1239
2023-01-18T09:22:00.334Z,964.165
2023-01-18T09:23:00.779Z,964.1239
2023-01-18T09:24:00.644Z,964.165
2023-01-18T09:25:00.781Z,964.172
2023-01-18T09:26:00.948Z,964.1991
2023-01-18T09:27:01.083Z,964.3303
2023-01-18T09:28:01.232Z,964.0779
2023-01-18T09:29:00.385Z,964.2813
2023-01-18T09:30:00.555Z,964.1971
2023-01-18T09:31:00.723Z,964.0549
2023-01-18T09:32:00.809Z,964.0288
2023-01-18T09:33:01.436Z,964.103
2023-01-18T09:34:17.925Z,964.2813
2023-01-18T09:35:01.259Z,964.1811
2023-01-18T09:36:00.424Z,964.125
2023-01-18T09:37:00.563Z,964.2623
2023-01-18T09:38:00.688Z,964.2082
2023-01-18T09:39:00.841Z,964.2273
2023-01-18T09:40:00.988Z,964.2613
2023-01-18T09:41:01.167Z,964.2393
2023-01-18T09:42:00.312Z,964.4237
2023-01-18T09:43:00.803Z,964.3175
2023-01-18T09:44:00.579Z,964.4397
2023-01-18T09:45:00.738Z,964.4327
2023-01-18T09:46:00.882Z,964.4617
2023-01-18T09:47:01.058Z,964.4928
2023-01-18T09:48:01.160Z,964.3024
2023-01-18T09:49:00.347Z,964.7513
2023-01-18T09:50:00.482Z,964.4928
2023-01-18T09:51:00.610Z,964.3184
2023-01-18T09:52:00.769Z,964.5179
2023-01-18T09:53:01.378Z,964.3766
2023-01-18T09:54:01.072Z,964.6291
2023-01-18T09:55:01.254Z,964.4327
2023-01-18T09:56:00.404Z,964.6482
2023-01-18T09:57:00.531Z,964.4738
2023-01-18T09:58:00.668Z,964.4738
2023-01-18T09:59:00.814Z,964.564
2023-01-18T10:00:01.050Z,964.5199
2023-01-18T10:01:01.217Z,964.5921
2023-01-18T10:02:01.342Z,964.8465
2023-01-18T10:03:00.956Z,964.5549
2023-01-18T10:04:00.547Z,964.5739
2023-01-18T10:05:00.690Z,964.6561
2023-01-18T10:06:00.847Z,964.6841
2023-01-18T10:07:00.978Z,964.5739
2023-01-18T10:08:01.145Z,964.652
2023-01-18T10:09:00.288Z,964.6079
2023-01-18T10:10:00.435Z,964.6561
2023-01-18T10:11:00.580Z,964.636
2023-01-18T10:12:00.711Z,964.6079
2023-01-18T10:13:01.392Z,964.7202
2023-01-18T10:14:01.041Z,964.5739
2023-01-18T10:15:01.166Z,964.7482
2023-01-18T10:16:00.381Z,964.7122
2023-01-18T10:17:00.491Z,964.6831
2023-01-18T10:18:00.639Z,964.6561
2023-01-18T10:19:00.767Z,964.6831
2023-01-18T10:20:00.931Z,964.8465
2023-01-18T10:21:01.095Z,964.8746
2023-01-18T10:22:01.199Z,964.9026
2023-01-18T10:23:00.848Z,964.8736
2023-01-18T10:24:00.501Z,964.9397
2023-01-18T10:25:00.647Z,964.7513
2023-01-18T10:26:00.811Z,964.8444
2023-01-18T10:27:00.925Z,964.6179
2023-01-18T10:28:01.090Z,964.6179
2023-01-18T10:29:01.225Z,964.7862
2023-01-18T10:30:00.373Z,964.7862
2023-01-18T10:31:00.530Z,964.7642
2023-01-18T10:32:00.694Z,964.6861
2023-01-18T10:33:01.357Z,964.7301
2023-01-18T10:34:00.976Z,964.7983
2023-01-18T10:35:01.109Z,964.7301
2023-01-18T10:36:00.269Z,964.7301
2023-01-18T10:37:00.437Z,964.8744
2023-01-18T10:38:00.848Z,964.8744
2023-01-18T10:39:00.702Z,964.9286
2023-01-18T10:40:00.847Z,964.9005
2023-01-18T10:41:01.033Z,964.7954
2023-01-18T10:42:01.160Z,964.8465
2023-01-18T10:43:00.679Z,964.7513
2023-01-18T10:44:00.448Z,965.071
2023-01-18T10:45:00.618Z,965.0139
2023-01-18T10:46:00.791Z,964.8746
2023-01-18T10:47:00.891Z,964.8465
2023-01-18T10:48:01.032Z,964.8074
2023-01-18T10:49:01.167Z,964.7513
2023-01-18T10:50:00.336Z,964.9566
2023-01-18T10:51:00.477Z,964.9276
2023-01-18T10:52:00.651Z,965.071
2023-01-18T10:53:01.092Z,965.087
2023-01-18T10:54:00.896Z,965.0149
2023-01-18T10:55:01.022Z,964.8746
2023-01-18T10:56:01.168Z,964.9587
2023-01-18T10:57:00.326Z,964.9587
2023-01-18T10:58:00.926Z,965.099
2023-01-18T10:59:00.609Z,965.099
2023-01-18T11:00:00.787Z,965.0981
2023-01-18T11:01:01.022Z,965.1051
2023-01-18T11:02:01.202Z,965.0049
2023-01-18T11:03:01.758Z,965.0671
2023-01-18T11:04:00.341Z,965.0049
2023-01-18T11:05:00.485Z,964.9488
2023-01-18T11:06:00.623Z,964.9829
2023-01-18T11:07:00.778Z,965.1414
2023-01-18T11:08:02.661Z,965.0852
2023-01-18T11:09:01.072Z,965.0952
2023-01-18T11:10:01.212Z,965.1012
2023-01-18T11:11:00.388Z,964.9829
2023-01-18T11:12:00.518Z,965.039
2023-01-18T11:13:01.034Z,965.2074
2023-01-18T11:14:00.804Z,965.0891
2023-01-18T11:15:00.952Z,965.0831
2023-01-18T11:16:01.205Z,965.1733
2023-01-18T11:17:01.287Z,965.1392
2023-01-18T11:18:00.458Z,965.0269
2023-01-18T11:19:00.541Z,965.1733
2023-01-18T11:20:00.713Z,965.2756
2023-01-18T11:21:00.844Z,965.1914
2023-01-18T11:22:01.027Z,965.1232
2023-01-18T11:23:01.597Z,965.1264
2023-01-18T11:24:00.295Z,965.2287
2023-01-18T11:25:00.469Z,965.3381
2023-01-18T11:26:00.629Z,965.3039
2023-01-18T11:27:00.774Z,965.2098
2023-01-18T11:28:01.424Z,965.1316
2023-01-18T11:29:01.067Z,965.2841
2023-01-18T11:30:01.231Z,965.1619
2023-01-18T11:31:00.351Z,965.2401
2023-01-18T11:32:00.597Z,965.1757
2023-01-18T11:33:01.044Z,965.3311
2023-01-18T11:34:00.813Z,965.1065
2023-01-18T11:35:00.997Z,965.3722
2023-01-18T11:36:01.106Z,965.4063
2023-01-18T11:37:01.285Z,965.4404
2023-01-18T11:38:00.969Z,965.2439
2023-01-18T11:39:00.550Z,965.3381
2023-01-18T11:40:00.705Z,965.4532
2023-01-18T11:41:00.858Z,965.2568
2023-01-18T11:42:01.004Z,965.4603
2023-01-18T11:43:01.145Z,965.341
2023-01-18T11:44:00.298Z,965.3789
2023-01-18T11:45:00.438Z,965.4382
2023-01-18T11:46:00.729Z,965.4714
2023-01-18T11:47:00.743Z,965.3601
2023-01-18T11:48:01.211Z,965.4404